Time;durP1;ratioP1;P1;durP2;ratioP2;P2;SDS_P1;SDS_P2;PMS_P1;PMS_P2;Temp;Humidity;BMP_temperature;BMP_pressure;BME280_temperature;BME280_humidity;BME280_pressure;Samples;Min_cycle;Max_cycle;Signal;HPM_P1;HPM_P2
2024/04/07 00:02:11;;;;;;;4.43;1.48;;;;;;;15.68;88.40;100147.47;5213165;28;20029;-74
2024/04/07 00:04:42;;;;;;;3.15;1.63;;;;;;;15.88;86.95;100142.59;5213877;28;20032;-73
2024/04/07 00:07:12;;;;;;;2.83;1.50;;;;;;;15.70;87.24;100127.16;5215133;28;20376;-73
2024/04/07 00:09:42;;;;;;;4.00;2.20;;;;;;;15.64;87.39;100138.91;5209387;28;20076;-71
2024/04/07 00:12:12;;;;;;;4.82;1.60;;;;;;;15.94;85.85;100136.09;5214397;28;20365;-73
2024/04/07 00:14:44;;;;;;;5.07;1.40;;;;;;;16.03;85.20;100120.53;5209481;28;20024;-71
2024/04/07 00:17:15;;;;;;;4.25;1.40;;;;;;;15.99;86.14;100124.31;5213139;28;20025;-74
2024/04/07 00:19:48;;;;;;;3.15;1.85;;;;;;;15.84;87.62;100121.84;5214055;28;20032;-74
2024/04/07 00:22:18;;;;;;;6.10;2.28;;;;;;;15.74;88.11;100124.19;5211347;28;20035;-70
2024/04/07 00:24:49;;;;;;;3.50;1.42;;;;;;;15.75;88.58;100120.66;5214158;28;20051;-73
2024/04/07 00:27:19;;;;;;;3.78;1.63;;;;;;;15.71;88.12;100123.56;5214269;28;20036;-74
2024/04/07 00:29:50;;;;;;;6.13;1.65;;;;;;;15.69;88.28;100112.28;5215026;28;20029;-74
2024/04/07 00:32:20;;;;;;;3.47;1.80;;;;;;;15.80;86.46;100107.16;5214549;28;20021;-71
2024/04/07 00:34:50;;;;;;;2.70;1.50;;;;;;;15.85;85.56;100119.09;5213812;28;20028;-74
2024/04/07 00:37:21;;;;;;;4.28;1.60;;;;;;;15.85;86.22;100111.19;5213777;28;20021;-72
2024/04/07 00:39:52;;;;;;;3.75;1.83;;;;;;;15.90;86.64;100106.47;5206627;28;20120;-73
2024/04/07 00:42:22;;;;;;;3.58;2.03;;;;;;;15.72;86.87;100106.81;5205028;28;20440;-74
2024/04/07 00:44:52;;;;;;;2.47;1.50;;;;;;;15.81;86.61;100108.84;5203091;28;20029;-74
2024/04/07 00:47:24;;;;;;;4.95;1.75;;;;;;;15.82;86.41;100114.03;5202159;28;20116;-73
2024/04/07 00:49:55;;;;;;;11.50;5.50;;;;;;;15.77;86.29;100110.00;5206769;28;20025;-74
2024/04/07 00:52:26;;;;;;;7.03;1.80;;;;;;;15.84;86.37;100119.22;5209816;28;20103;-74
2024/04/07 00:54:57;;;;;;;6.57;1.60;;;;;;;15.75;86.28;100115.38;5188052;28;20120;-72
2024/04/07 00:57:29;;;;;;;5.80;1.42;;;;;;;15.86;85.71;100118.16;5207427;28;20025;-72
2024/04/07 01:00:01;;;;;;;3.72;1.30;;;;;;;15.91;85.06;100116.06;5205086;28;20408;-74
2024/04/07 01:02:31;;;;;;;3.80;1.40;;;;;;;16.00;83.71;100107.56;5209916;28;20373;-74
2024/04/07 01:05:01;;;;;;;7.13;1.75;;;;;;;16.01;83.92;100092.63;5212545;28;20227;-73
2024/04/07 01:07:33;;;;;;;4.28;1.63;;;;;;;15.94;84.83;100097.44;5209525;28;20025;-73
2024/04/07 01:10:06;;;;;;;2.33;1.38;;;;;;;15.92;84.90;100095.81;5209297;28;20511;-72
2024/04/07 01:12:37;;;;;;;4.40;1.27;;;;;;;15.89;85.06;100088.13;5211432;28;20403;-73
2024/04/07 01:15:07;;;;;;;2.65;1.20;;;;;;;15.81;84.54;100083.34;5211182;28;20037;-73
2024/04/07 01:17:37;;;;;;;2.78;1.40;;;;;;;15.86;84.81;100089.16;5212408;28;20033;-71
2024/04/07 01:20:11;;;;;;;3.70;1.30;;;;;;;15.79;85.54;100073.84;5210529;28;20036;-73
2024/04/07 01:22:42;;;;;;;3.83;1.40;;;;;;;15.71;86.16;100060.34;5209806;28;20044;-73
2024/04/07 01:25:15;;;;;;;4.65;1.20;;;;;;;15.80;83.50;100055.31;5210001;28;20400;-73
2024/04/07 01:27:47;;;;;;;4.35;1.30;;;;;;;15.89;83.04;100059.97;5208551;28;20433;-75
2024/04/07 01:30:18;;;;;;;2.50;1.25;;;;;;;15.80;83.22;100055.31;5205356;28;20114;-73
2024/04/07 01:32:48;;;;;;;2.13;1.13;;;;;;;15.82;82.79;100063.97;5211167;28;20100;-75
2024/04/07 01:35:19;;;;;;;3.10;1.20;;;;;;;15.98;83.05;100059.38;5210809;28;20041;-73
2024/04/07 01:37:49;;;;;;;6.20;1.40;;;;;;;15.96;82.83;100060.41;5216544;28;20252;-74
2024/04/07 01:40:20;;;;;;;2.15;1.00;;;;;;;15.72;83.99;100056.75;5208931;28;20022;-72
2024/04/07 01:42:53;;;;;;;4.07;1.27;;;;;;;15.70;83.92;100064.75;5209256;28;20035;-73
2024/04/07 01:45:23;;;;;;;2.50;1.20;;;;;;;15.78;83.84;100064.25;5205731;28;20499;-74
2024/04/07 01:47:54;;;;;;;3.33;1.10;;;;;;;15.79;83.39;100063.31;5210667;28;20072;-73
2024/04/07 01:50:24;;;;;;;3.83;1.20;;;;;;;15.79;83.53;100063.31;5212954;28;20031;-73
2024/04/07 01:52:54;;;;;;;3.08;1.33;;;;;;;15.79;82.13;100053.63;5210002;28;20132;-73
2024/04/07 01:55:24;;;;;;;3.65;1.27;;;;;;;15.88;81.91;100058.28;5208888;28;20021;-73
2024/04/07 01:57:55;;;;;;;4.15;1.00;;;;;;;15.89;82.34;100045.97;5213110;28;20033;-73
2024/04/07 02:00:25;;;;;;;2.53;1.17;;;;;;;15.80;82.41;100044.75;5211388;28;20033;-73
2024/04/07 02:02:55;;;;;;;5.00;1.40;;;;;;;15.69;83.26;100043.78;5211948;28;20021;-73
2024/04/07 02:05:26;;;;;;;2.78;1.23;;;;;;;15.66;83.87;100038.69;5210278;28;20551;-74
2024/04/07 02:07:56;;;;;;;2.88;1.55;;;;;;;15.66;83.79;100041.31;5209196;28;20021;-73
2024/04/07 02:10:26;;;;;;;5.40;1.48;;;;;;;15.61;83.79;100043.41;5209634;28;20035;-73
2024/04/07 02:12:56;;;;;;;3.50;1.38;;;;;;;15.54;84.07;100042.97;5211065;28;20082;-73
2024/04/07 02:15:27;;;;;;;5.85;1.38;;;;;;;15.47;84.24;100046.09;5209327;28;20034;-73
2024/04/07 02:17:58;;;;;;;2.88;1.20;;;;;;;15.48;83.84;100053.91;5211912;28;20492;-74
2024/04/07 02:20:28;;;;;;;4.35;1.60;;;;;;;15.41;83.27;100068.41;5208591;28;20522;-71
2024/04/07 02:22:59;;;;;;;8.18;1.55;;;;;;;15.36;83.44;100059.94;5211857;28;20033;-73
2024/04/07 02:25:30;;;;;;;2.85;1.20;;;;;;;15.61;82.63;100064.50;5208606;28;20108;-73
2024/04/07 02:28:00;;;;;;;5.75;1.38;;;;;;;15.50;83.55;100057.28;5211202;28;20354;-74
2024/04/07 02:30:35;;;;;;;5.30;1.70;;;;;;;15.47;83.67;100061.88;5206726;28;20041;-75
2024/04/07 02:33:05;;;;;;;1.95;1.20;;;;;;;15.33;84.01;100065.41;5209497;28;21027;-72
2024/04/07 02:35:36;;;;;;;2.60;1.27;;;;;;;15.37;83.29;100064.25;5212417;28;20045;-74
2024/04/07 02:38:09;;;;;;;5.65;1.33;;;;;;;15.46;81.88;100073.38;5209445;28;20025;-73
2024/04/07 02:40:39;;;;;;;5.80;1.33;;;;;;;15.54;80.10;100079.00;5210067;28;20027;-70
2024/04/07 02:43:09;;;;;;;2.00;1.00;;;;;;;15.61;79.14;100081.16;5211021;28;20033;-73
2024/04/07 02:48:29;;;;;;;3.92;1.13;;;;;;;15.75;78.99;100086.38;5210470;28;20079;-70
2024/04/07 02:50:59;;;;;;;5.32;1.10;;;;;;;15.83;79.02;100093.78;5209420;28;20421;-73
2024/04/07 02:53:29;;;;;;;5.05;1.13;;;;;;;15.85;79.16;100087.47;5210171;28;20031;-71
2024/04/07 02:56:00;;;;;;;3.80;1.00;;;;;;;15.68;79.83;100071.91;5213526;28;20597;-73
2024/04/07 02:58:30;;;;;;;2.65;1.20;;;;;;;15.53;80.67;100072.88;5212093;28;20033;-73
2024/04/07 03:01:07;;;;;;;2.92;1.23;;;;;;;15.58;81.71;100070.81;5214524;28;20040;-73
2024/04/07 03:03:37;;;;;;;2.20;1.10;;;;;;;15.26;83.33;100079.88;5210022;28;20031;-73
2024/04/07 03:06:12;;;;;;;4.88;1.20;;;;;;;15.17;84.05;100080.44;5209676;28;20041;-72
2024/04/07 03:08:42;;;;;;;3.80;1.20;;;;;;;15.02;84.90;100083.16;5211752;28;20028;-71
2024/04/07 03:11:12;;;;;;;3.65;1.33;;;;;;;14.99;84.87;100078.94;5212250;28;20067;-73
2024/04/07 03:13:43;;;;;;;4.03;1.42;;;;;;;14.91;85.23;100086.47;5213918;28;20111;-71
2024/04/07 03:16:14;;;;;;;2.35;1.40;;;;;;;15.01;83.00;100090.22;5209638;28;20025;-73
2024/04/07 03:18:44;;;;;;;2.67;1.10;;;;;;;15.09;82.10;100081.84;5212027;28;20072;-74
2024/04/07 03:21:15;;;;;;;4.13;1.40;;;;;;;15.19;81.63;100089.06;5211560;28;20182;-74
2024/04/07 03:23:45;;;;;;;1.98;1.10;;;;;;;15.28;81.58;100080.63;5209135;28;20422;-74
2024/04/07 03:26:15;;;;;;;2.13;1.10;;;;;;;15.33;81.96;100072.47;5210494;28;20048;-74
2024/04/07 03:28:47;;;;;;;3.85;1.20;;;;;;;15.26;82.62;100081.63;5211883;28;20437;-74
2024/04/07 03:31:18;;;;;;;3.35;1.30;;;;;;;15.23;82.49;100069.53;5211337;28;20033;-74
2024/04/07 03:33:48;;;;;;;3.42;1.23;;;;;;;15.29;82.57;100073.56;5213233;28;20036;-73
2024/04/07 03:36:18;;;;;;;5.53;1.10;;;;;;;15.25;82.13;100083.44;5211283;28;20047;-73
2024/04/07 03:38:48;;;;;;;3.75;1.13;;;;;;;15.30;81.81;100085.81;5209769;28;20029;-74
2024/04/07 03:41:19;;;;;;;5.53;1.30;;;;;;;15.30;82.08;100081.41;5211571;28;20032;-73
2024/04/07 03:43:49;;;;;;;2.53;1.08;;;;;;;15.31;80.92;100093.63;5211856;28;20036;-74
2024/04/07 03:46:20;;;;;;;3.33;1.30;;;;;;;15.35;81.59;100081.13;5211413;28;20032;-73
2024/04/07 03:48:53;;;;;;;4.40;1.20;;;;;;;15.29;81.21;100095.50;5213208;28;20601;-74
2024/04/07 03:51:24;;;;;;;5.13;1.17;;;;;;;15.36;81.34;100106.50;5207523;28;20029;-73
2024/04/07 03:53:54;;;;;;;4.82;1.27;;;;;;;15.31;81.88;100096.25;5205443;28;20518;-73
2024/04/07 03:56:24;;;;;;;3.97;1.10;;;;;;;15.42;80.36;100116.66;5211676;28;20139;-73
2024/04/07 03:58:56;;;;;;;2.15;1.20;;;;;;;15.42;80.71;100106.97;5211438;28;20135;-74
2024/04/07 04:01:27;;;;;;;3.60;1.42;;;;;;;15.66;77.67;100104.53;5209507;28;20040;-74
2024/04/07 04:03:57;;;;;;;6.32;1.10;;;;;;;15.87;76.36;100113.75;5211714;28;20025;-73
2024/04/07 04:06:28;;;;;;;5.90;1.20;;;;;;;16.06;74.69;100119.50;5210819;28;20191;-75
2024/04/07 04:08:58;;;;;;;3.60;1.20;;;;;;;16.11;75.30;100113.00;5209632;28;20362;-74
2024/04/07 04:11:28;;;;;;;2.83;1.10;;;;;;;16.28;74.49;100117.16;5211362;28;20042;-74
2024/04/07 04:13:59;;;;;;;6.13;1.20;;;;;;;16.31;75.16;100125.72;5212722;28;20404;-74
2024/04/07 04:16:30;;;;;;;9.30;1.40;;;;;;;16.37;74.07;100132.41;5209229;28;20181;-72
2024/04/07 04:19:00;;;;;;;5.05;1.20;;;;;;;16.41;74.03;100134.72;5211829;28;20032;-73
2024/04/07 04:21:30;;;;;;;4.65;1.13;;;;;;;16.58;72.31;100134.44;5211155;28;20217;-71
2024/04/07 04:24:00;;;;;;;3.80;1.00;;;;;;;16.88;70.27;100153.50;5213349;28;20036;-74
2024/04/07 04:26:31;;;;;;;3.85;1.33;;;;;;;17.02;69.79;100158.69;5211011;28;20511;-72
2024/04/07 04:29:01;;;;;;;3.22;1.17;;;;;;;17.33;67.92;100159.09;5205753;28;21254;-72
2024/04/07 04:31:32;;;;;;;8.15;1.20;;;;;;;17.50;67.61;100164.09;5205626;28;20108;-71
2024/04/07 04:34:02;;;;;;;5.97;1.25;;;;;;;17.73;66.54;100167.75;5207177;28;20535;-74
2024/04/07 04:36:33;;;;;;;3.92;1.00;;;;;;;18.16;64.93;100169.00;5208564;28;20157;-74
2024/04/07 04:39:06;;;;;;;3.60;1.20;;;;;;;18.29;65.36;100170.66;5197739;28;20025;-73
2024/04/07 04:41:37;;;;;;;6.55;1.15;;;;;;;18.57;63.46;100180.91;5208206;28;20051;-74
2024/04/07 04:44:07;;;;;;;6.32;1.25;;;;;;;18.71;63.31;100187.81;5208626;28;20437;-74
2024/04/07 04:46:42;;;;;;;4.43;1.08;;;;;;;18.76;63.70;100192.66;5208319;28;20033;-74
2024/04/07 04:49:16;;;;;;;2.10;1.10;;;;;;;18.85;63.20;100191.97;5209057;28;20021;-73
2024/04/07 04:51:48;;;;;;;5.65;1.17;;;;;;;18.97;62.38;100196.31;5208334;28;20028;-74
2024/04/07 04:54:19;;;;;;;3.30;1.20;;;;;;;18.96;62.99;100209.69;5207208;28;20316;-74
2024/04/07 04:56:49;;;;;;;5.35;1.75;;;;;;;19.14;62.47;100208.28;5216934;28;20064;-74
2024/04/07 04:59:19;;;;;;;4.65;1.85;;;;;;;19.12;62.32;100221.66;5216773;28;20036;-75
2024/04/07 05:01:50;;;;;;;7.88;2.13;;;;;;;19.16;61.65;100225.81;5216909;28;20033;-74
2024/04/07 05:04:20;;;;;;;8.25;2.65;;;;;;;19.15;61.78;100237.34;5217738;28;20099;-71
2024/04/07 05:06:50;;;;;;;10.77;2.50;;;;;;;19.09;62.13;100239.59;5217544;28;20037;-74
2024/04/07 05:09:20;;;;;;;8.50;2.78;;;;;;;19.17;62.57;100240.75;5213858;28;20038;-72
2024/04/07 05:11:51;;;;;;;7.97;2.63;;;;;;;19.22;62.76;100246.53;5230922;22;20017;-72
2024/04/07 05:14:21;;;;;;;9.15;2.70;;;;;;;19.21;63.01;100252.78;5156691;28;20041;-74
2024/04/07 05:16:51;;;;;;;10.35;2.20;;;;;;;19.13;63.07;100260.44;5175419;28;20373;-73
2024/04/07 05:19:22;;;;;;;4.35;1.77;;;;;;;19.11;63.09;100267.66;5176575;28;20065;-73
2024/04/07 05:21:52;;;;;;;7.75;2.00;;;;;;;19.03;63.76;100266.53;5177406;28;20575;-74
2024/04/07 05:24:23;;;;;;;8.95;1.70;;;;;;;19.17;62.88;100269.91;5180089;28;20029;-74
2024/04/07 05:26:54;;;;;;;6.75;2.00;;;;;;;19.21;63.25;100278.44;5167269;28;20384;-73
2024/04/07 05:29:24;;;;;;;5.47;1.70;;;;;;;19.11;63.73;100275.59;5163073;28;20116;-74
2024/04/07 05:31:54;;;;;;;5.40;2.08;;;;;;;19.14;63.43;100278.00;5181958;28;20513;-74
2024/04/07 05:34:27;;;;;;;6.55;2.35;;;;;;;19.17;63.24;100288.44;5183051;28;20120;-73
2024/04/07 05:36:59;;;;;;;8.15;2.08;;;;;;;19.30;63.38;100291.00;5176463;28;20084;-74
2024/04/07 05:39:29;;;;;;;8.15;1.73;;;;;;;19.57;62.53;100284.44;5180893;28;20393;-73
2024/04/07 05:41:59;;;;;;;4.77;1.50;;;;;;;19.80;61.06;100296.75;5180399;28;20025;-74
2024/04/07 05:44:30;;;;;;;4.78;1.40;;;;;;;19.68;62.33;100302.19;5179839;28;20495;-73
2024/04/07 05:47:00;;;;;;;7.22;1.50;;;;;;;19.73;61.91;100305.31;5179758;28;20029;-73
2024/04/07 05:49:34;;;;;;;3.05;1.20;;;;;;;19.79;62.00;100326.06;5182146;28;20029;-72
2024/04/07 05:52:05;;;;;;;4.35;1.27;;;;;;;19.81;61.79;100335.56;5182757;28;20045;-73
2024/04/07 05:54:35;;;;;;;2.92;1.08;;;;;;;19.68;63.00;100340.16;5166854;28;20083;-72
2024/04/07 05:57:06;;;;;;;6.32;1.30;;;;;;;19.74;62.83;100360.91;5186238;28;20731;-74
2024/04/07 05:59:36;;;;;;;4.25;1.30;;;;;;;19.62;63.49;100363.66;5180927;28;20462;-73
2024/04/07 06:02:06;;;;;;;4.47;1.33;;;;;;;19.57;63.84;100366.63;5165219;28;20053;-74
2024/04/07 06:04:37;;;;;;;3.63;1.08;;;;;;;19.53;64.40;100365.19;5180550;28;20052;-74
2024/04/07 06:07:08;;;;;;;3.40;1.30;;;;;;;19.50;64.07;100365.44;5177368;28;20030;-74
2024/04/07 06:09:38;;;;;;;3.53;1.30;;;;;;;19.58;64.06;100357.72;5179605;28;20025;-74
2024/04/07 06:12:09;;;;;;;3.70;1.35;;;;;;;19.63;64.22;100370.63;5180135;28;20500;-73
2024/04/07 06:14:39;;;;;;;4.25;1.27;;;;;;;19.59;64.53;100388.56;5179949;28;20128;-72
2024/04/07 06:17:09;;;;;;;6.25;1.33;;;;;;;19.73;64.34;100396.34;5182904;28;20030;-74
2024/04/07 06:19:40;;;;;;;4.30;1.48;;;;;;;19.76;64.08;100393.44;5158928;28;20493;-74
2024/04/07 06:22:10;;;;;;;5.65;1.50;;;;;;;19.73;64.85;100409.59;5179840;28;20075;-74
2024/04/07 06:24:41;;;;;;;5.45;1.58;;;;;;;19.66;64.32;100407.53;5178944;28;20036;-72
2024/04/07 06:27:11;;;;;;;4.03;1.27;;;;;;;19.65;63.82;100406.66;5179219;28;20105;-73
2024/04/07 06:29:41;;;;;;;6.47;1.70;;;;;;;19.79;64.55;100418.91;5152664;28;20022;-74
2024/04/07 06:32:12;;;;;;;6.35;1.40;;;;;;;19.82;64.92;100422.16;5184184;28;20063;-74
2024/04/07 06:34:42;;;;;;;4.15;1.30;;;;;;;19.74;64.26;100413.94;5179221;28;20080;-72
2024/04/07 06:37:12;;;;;;;7.38;1.60;;;;;;;19.70;65.20;100422.25;5182148;28;20340;-74
2024/04/07 06:39:43;;;;;;;7.43;1.50;;;;;;;19.81;64.92;100444.34;5181512;28;20392;-71
2024/04/07 06:42:20;;;;;;;8.00;1.40;;;;;;;19.98;64.69;100451.03;5181940;28;20061;-73
2024/04/07 06:44:50;;;;;;;4.28;1.30;;;;;;;20.04;64.84;100446.16;5179589;28;20061;-72
2024/04/07 06:47:22;;;;;;;7.93;1.30;;;;;;;20.34;64.02;100451.75;5182965;28;20049;-71
2024/04/07 06:49:57;;;;;;;7.70;1.48;;;;;;;20.59;63.74;100459.50;5183111;28;20037;-73
2024/04/07 06:52:27;;;;;;;3.38;1.27;;;;;;;20.55;64.04;100462.50;5187347;28;20028;-74
2024/04/07 06:54:57;;;;;;;9.25;1.90;;;;;;;20.75;63.16;100467.94;5182047;28;20041;-74
2024/04/07 06:57:28;;;;;;;7.40;1.80;;;;;;;20.78;63.80;100480.97;5184961;28;20057;-73
2024/04/07 06:59:58;;;;;;;5.38;1.45;;;;;;;20.73;64.07;100499.09;5183443;28;20422;-73
2024/04/07 07:02:28;;;;;;;6.05;1.55;;;;;;;20.88;63.71;100495.28;5166236;28;20036;-74
2024/04/07 07:04:59;;;;;;;7.45;1.60;;;;;;;20.95;64.65;100496.47;5185437;28;20022;-73
2024/04/07 07:07:29;;;;;;;8.68;1.73;;;;;;;20.95;64.69;100515.94;5182878;28;20017;-74
2024/04/07 07:09:59;;;;;;;9.18;1.70;;;;;;;20.87;65.07;100522.81;5183396;28;20566;-73
2024/04/07 07:12:33;;;;;;;8.25;1.80;;;;;;;21.08;65.33;100529.91;5183629;28;20029;-74
2024/04/07 07:15:04;;;;;;;7.03;1.95;;;;;;;21.24;65.77;100535.72;5183535;28;20421;-75
2024/04/07 07:17:34;;;;;;;10.80;2.10;;;;;;;21.14;66.28;100536.56;5185438;28;20030;-75
2024/04/07 07:20:05;;;;;;;5.77;1.73;;;;;;;21.32;66.05;100541.28;5162867;28;20561;-75
2024/04/07 07:22:36;;;;;;;6.05;1.65;;;;;;;21.21;66.17;100551.91;5184359;28;20280;-74
2024/04/07 07:25:07;;;;;;;10.13;1.77;;;;;;;21.24;66.74;100553.50;5181778;28;20026;-74
2024/04/07 07:27:37;;;;;;;7.20;1.88;;;;;;;21.12;66.47;100554.47;5184171;28;20392;-74
2024/04/07 07:30:08;;;;;;;10.75;2.10;;;;;;;21.20;67.19;100552.88;5164897;28;20129;-74
2024/04/07 07:32:39;;;;;;;9.40;1.80;;;;;;;21.72;65.53;100542.44;5180836;28;20044;-74
2024/04/07 07:35:09;;;;;;;7.13;1.75;;;;;;;22.24;63.94;100558.44;5180282;28;20056;-74
2024/04/07 07:37:39;;;;;;;9.43;2.03;;;;;;;22.90;62.73;100572.25;5179618;28;20034;-73
2024/04/07 07:40:10;;;;;;;6.87;1.47;;;;;;;23.76;61.25;100570.78;5163694;28;20767;-74
2024/04/07 07:42:40;;;;;;;12.10;1.90;;;;;;;23.41;61.70;100567.72;5178309;28;20273;-74
2024/04/07 07:45:10;;;;;;;6.23;1.77;;;;;;;23.41;61.93;100574.88;5179184;28;20034;-74
2024/04/07 07:47:41;;;;;;;6.47;1.67;;;;;;;22.82;62.75;100581.88;5183234;28;20272;-74
2024/04/07 07:50:11;;;;;;;7.17;1.70;;;;;;;22.67;62.76;100589.34;5182586;28;20034;-75
2024/04/07 07:52:41;;;;;;;9.00;1.80;;;;;;;21.78;65.26;100586.31;5177335;28;20265;-74
2024/04/07 07:55:12;;;;;;;6.72;1.60;;;;;;;21.43;65.43;100585.63;5181451;28;20033;-75
2024/04/07 07:57:42;;;;;;;8.27;1.83;;;;;;;21.72;65.59;100590.31;5176786;28;20444;-73
2024/04/07 08:00:13;;;;;;;6.78;1.92;;;;;;;21.29;66.60;100604.50;5183708;28;20026;-74
2024/04/07 08:02:43;;;;;;;7.68;1.70;;;;;;;20.91;67.43;100604.00;5177312;28;20269;-74
2024/04/07 08:05:14;;;;;;;5.80;1.40;;;;;;;21.90;65.65;100590.66;5184926;28;20025;-74
2024/04/07 08:07:44;;;;;;;6.25;1.83;;;;;;;22.03;65.63;100596.63;5177883;28;20272;-75
2024/04/07 08:10:14;;;;;;;5.55;1.52;;;;;;;22.13;64.45;100594.91;5182698;28;20029;-74
2024/04/07 08:12:45;;;;;;;5.50;1.40;;;;;;;22.50;64.34;100599.75;5180947;28;20030;-74
2024/04/07 08:15:16;;;;;;;6.18;1.60;;;;;;;23.26;62.61;100590.41;5183035;28;20025;-74
2024/04/07 08:17:46;;;;;;;8.48;1.70;;;;;;;23.73;61.51;100591.53;5183961;28;20040;-74
2024/04/07 08:20:18;;;;;;;5.85;1.60;;;;;;;24.17;60.71;100612.44;5185254;28;20155;-74
2024/04/07 08:22:48;;;;;;;6.97;1.50;;;;;;;24.18;60.42;100606.13;5182069;28;20022;-75
2024/04/07 08:25:18;;;;;;;7.27;1.50;;;;;;;24.36;59.24;100599.94;5180570;28;20269;-75
2024/04/07 08:27:49;;;;;;;6.88;1.35;;;;;;;24.29;60.21;100600.63;5181661;28;20280;-73
2024/04/07 08:30:19;;;;;;;6.37;1.20;;;;;;;24.95;59.83;100589.91;5184237;28;20025;-74
2024/04/07 08:32:49;;;;;;;4.40;1.40;;;;;;;24.95;58.47;100593.41;5183310;28;20487;-74
2024/04/07 08:35:19;;;;;;;3.97;1.30;;;;;;;25.42;58.60;100599.59;5181379;28;20033;-73
2024/04/07 08:37:50;;;;;;;6.80;1.30;;;;;;;25.81;57.44;100612.63;5182193;28;20724;-74
2024/04/07 08:40:20;;;;;;;4.68;1.70;;;;;;;25.17;57.87;100605.59;5180805;28;20299;-73
2024/04/07 08:42:52;;;;;;;3.67;1.25;;;;;;;25.19;57.89;100588.44;5182328;28;20479;-76
2024/04/07 08:45:24;;;;;;;5.15;1.38;;;;;;;24.54;58.72;100584.91;5166389;28;20116;-74
2024/04/07 08:47:55;;;;;;;5.40;1.50;;;;;;;23.74;61.13;100587.88;5181419;28;20483;-75
2024/04/07 08:50:26;;;;;;;6.72;1.52;;;;;;;23.15;62.67;100562.97;5182851;28;20061;-75
2024/04/07 08:52:57;;;;;;;6.50;1.40;;;;;;;23.51;64.01;100563.25;5180286;28;20057;-75
2024/04/07 08:55:27;;;;;;;7.10;1.40;;;;;;;22.79;63.68;100567.00;5176553;28;20052;-74
2024/04/07 08:57:59;;;;;;;4.05;1.40;;;;;;;22.51;64.07;100556.16;5182557;28;20030;-74
2024/04/07 09:00:31;;;;;;;7.07;1.40;;;;;;;22.87;67.45;100564.50;5186309;28;20075;-73
2024/04/07 09:03:01;;;;;;;4.03;1.35;;;;;;;22.39;67.39;100572.34;5180541;28;20149;-73
2024/04/07 09:05:32;;;;;;;7.03;1.52;;;;;;;22.75;67.65;100584.22;5181423;28;20480;-73
2024/04/07 09:08:02;;;;;;;4.72;1.60;;;;;;;23.62;68.73;100570.28;5181555;28;20040;-74
2024/04/07 09:10:32;;;;;;;4.47;1.50;;;;;;;23.65;64.61;100568.22;5180489;28;20200;-75
2024/04/07 09:13:03;;;;;;;6.77;1.50;;;;;;;24.12;64.13;100556.78;5181556;28;20034;-75
2024/04/07 09:15:34;;;;;;;6.82;1.60;;;;;;;24.33;64.13;100568.16;5180027;28;20274;-72
2024/04/07 09:18:05;;;;;;;8.07;1.90;;;;;;;24.01;65.96;100558.75;5177033;28;20221;-74
2024/04/07 09:20:35;;;;;;;6.35;1.92;;;;;;;23.49;64.51;100559.00;5181875;28;20040;-75
2024/04/07 09:23:05;;;;;;;6.57;1.95;;;;;;;24.07;63.25;100551.00;5184612;28;20037;-75
2024/04/07 09:25:36;;;;;;;8.15;1.83;;;;;;;23.76;63.31;100551.22;5183710;28;20459;-75
2024/04/07 09:28:06;;;;;;;6.07;1.38;;;;;;;23.35;62.00;100538.06;5181102;28;20028;-75
2024/04/07 09:30:36;;;;;;;6.72;1.40;;;;;;;23.56;62.67;100538.81;5183351;28;20211;-75
2024/04/07 09:33:07;;;;;;;6.32;1.38;;;;;;;23.05;63.83;100538.91;5188761;28;20088;-75
2024/04/07 09:35:39;;;;;;;6.32;1.35;;;;;;;23.24;65.10;100527.50;5184196;28;20021;-75
2024/04/07 09:38:09;;;;;;;5.85;1.42;;;;;;;23.14;65.40;100551.47;5186525;28;20035;-75
2024/04/07 09:40:45;;;;;;;4.27;1.30;;;;;;;22.96;64.65;100566.38;5167900;28;20797;-74
2024/04/07 09:43:16;;;;;;;6.20;1.10;;;;;;;23.22;65.96;100574.81;5186898;28;20281;-73
2024/04/07 09:45:48;;;;;;;7.38;1.42;;;;;;;23.26;65.24;100578.88;5179887;28;20503;-73
2024/04/07 09:48:26;;;;;;;6.38;1.30;;;;;;;23.64;64.00;100566.53;5165648;28;20575;-73
2024/04/07 09:51:04;;;;;;;4.63;1.55;;;;;;;23.45;63.68;100578.94;5178433;28;20082;-73
2024/04/07 09:53:58;;;;;;;5.65;1.45;;;;;;;23.92;64.87;100579.13;5182363;28;20057;-72
2024/04/07 09:56:31;;;;;;;7.05;1.30;;;;;;;24.11;63.37;100579.13;5183412;28;20314;-75
2024/04/07 09:59:04;;;;;;;3.85;1.38;;;;;;;23.92;62.98;100578.25;5162478;28;20260;-73
2024/04/07 10:01:34;;;;;;;5.20;1.52;;;;;;;23.92;64.17;100576.44;5180132;28;20029;-72
2024/04/07 10:04:06;;;;;;;3.00;1.02;;;;;;;24.00;64.62;100584.59;5173109;28;20042;-74
2024/04/07 10:06:37;;;;;;;8.38;1.45;;;;;;;23.93;63.19;100586.16;5178137;28;20021;-74
2024/04/07 10:09:09;;;;;;;6.82;1.80;;;;;;;23.95;61.83;100586.84;5181142;28;20033;-74
2024/04/07 10:11:48;;;;;;;6.60;2.08;;;;;;;24.19;61.95;100589.13;5161845;28;20042;-74
2024/04/07 10:14:18;;;;;;;8.73;1.90;;;;;;;24.37;61.65;100598.94;5182772;28;20469;-74
2024/04/07 10:16:51;;;;;;;6.57;1.67;;;;;;;24.39;61.69;100604.16;5171719;28;20765;-74
2024/04/07 10:19:24;;;;;;;4.43;1.60;;;;;;;24.37;59.86;100608.81;5160050;28;20076;-73
2024/04/07 10:21:55;;;;;;;4.55;1.55;;;;;;;24.30;59.62;100603.19;5180803;28;20401;-74
2024/04/07 10:24:25;;;;;;;4.15;1.45;;;;;;;24.08;61.61;100605.25;5158438;28;20033;-74
2024/04/07 10:26:59;;;;;;;4.78;1.52;;;;;;;23.95;61.88;100616.22;5178153;28;20438;-74
2024/04/07 10:29:32;;;;;;;6.13;1.80;;;;;;;23.80;61.25;100612.22;5182105;28;20151;-72
2024/04/07 10:32:03;;;;;;;4.13;1.30;;;;;;;23.62;61.07;100619.19;5179937;28;20045;-74
2024/04/07 10:34:33;;;;;;;4.50;1.20;;;;;;;23.32;62.47;100616.56;5161816;28;20519;-73
2024/04/07 10:37:04;;;;;;;4.88;1.40;;;;;;;23.51;63.63;100613.13;5182481;28;20038;-74
2024/04/07 10:39:34;;;;;;;5.88;1.50;;;;;;;23.48;61.67;100603.56;5179909;28;20482;-74
2024/04/07 10:42:04;;;;;;;4.72;1.25;;;;;;;23.57;62.14;100602.72;5181004;28;20046;-73
2024/04/07 10:44:35;;;;;;;5.80;1.42;;;;;;;23.30;61.66;100610.50;5180081;28;20037;-72
2024/04/07 10:47:05;;;;;;;7.13;1.58;;;;;;;22.82;62.80;100614.69;5173206;28;20056;-72
2024/04/07 10:49:37;;;;;;;5.25;1.35;;;;;;;22.87;63.33;100614.31;5175666;28;20497;-72
2024/04/07 10:52:15;;;;;;;5.50;1.60;;;;;;;22.70;63.04;100607.75;5175656;28;20037;-74
2024/04/07 10:54:45;;;;;;;8.32;1.60;;;;;;;22.49;63.13;100615.84;5179783;28;20639;-75
2024/04/07 10:57:16;;;;;;;4.72;1.20;;;;;;;22.63;64.45;100604.88;5184838;28;20086;-72
2024/04/07 10:59:46;;;;;;;6.32;1.50;;;;;;;22.37;64.70;100616.84;5177146;28;20033;-74
2024/04/07 11:02:17;;;;;;;8.38;1.77;;;;;;;22.38;65.22;100626.53;5180826;28;20149;-74
2024/04/07 11:04:49;;;;;;;6.65;1.50;;;;;;;22.33;65.27;100620.75;5173829;28;20032;-72
2024/04/07 11:07:19;;;;;;;7.18;1.67;;;;;;;22.42;65.36;100620.84;5177099;28;20212;-75
2024/04/07 11:09:49;;;;;;;6.00;1.70;;;;;;;22.12;66.28;100611.88;5176365;28;20567;-74
2024/04/07 11:12:25;;;;;;;5.53;1.50;;;;;;;22.08;67.48;100610.44;5195628;22;20029;-71
2024/04/07 11:14:57;;;;;;;7.25;1.52;;;;;;;22.10;67.45;100613.81;5218003;28;20032;-72
2024/04/07 11:17:27;;;;;;;5.63;1.58;;;;;;;22.38;69.08;100608.78;5215805;28;20523;-72
2024/04/07 11:19:58;;;;;;;5.90;1.67;;;;;;;22.59;69.29;100606.13;5205497;28;20128;-71
2024/04/07 11:22:28;;;;;;;6.75;1.98;;;;;;;22.76;68.25;100607.25;5214904;28;20507;-72
2024/04/07 11:24:59;;;;;;;8.13;1.90;;;;;;;22.99;66.89;100615.94;5204146;28;20515;-69
2024/04/07 11:27:29;;;;;;;4.30;1.50;;;;;;;23.34;68.21;100617.25;5208379;28;20051;-72
2024/04/07 11:30:01;;;;;;;7.10;1.83;;;;;;;23.07;65.52;100616.97;5204274;28;20060;-71
2024/04/07 11:32:31;;;;;;;9.85;1.80;;;;;;;23.29;67.42;100622.16;5208874;28;20546;-71
2024/04/07 11:35:03;;;;;;;6.97;1.90;;;;;;;23.29;67.81;100614.16;5207122;28;20049;-70
2024/04/07 11:37:34;;;;;;;5.70;1.50;;;;;;;23.32;66.41;100591.69;5204325;28;20338;-72
2024/04/07 11:40:06;;;;;;;5.90;1.75;;;;;;;23.38;66.52;100604.50;5201941;28;20507;-71
2024/04/07 11:42:36;;;;;;;5.75;1.65;;;;;;;23.45;66.67;100602.97;5207379;28;20594;-71
2024/04/07 11:45:06;;;;;;;10.90;1.93;;;;;;;23.29;65.48;100610.63;5209560;28;20040;-70